sensor_id;sensor_type;location;lat;lon;timestamp;temperature;humidity
837;DHT22;400;53.550;9.932;2023-09-19T00:02:14;18.80;1.00
837;DHT22;400;53.550;9.932;2023-09-19T00:04:41;18.80;1.00
837;DHT22;400;53.550;9.932;2023-09-19T00:07:08;18.70;1.00
837;DHT22;400;53.550;9.932;2023-09-19T00:09:35;18.70;1.00
837;DHT22;400;53.550;9.932;2023-09-19T00:12:04;18.60;1.00
837;DHT22;400;53.550;9.932;2023-09-19T00:14:32;18.70;1.00
837;DHT22;400;53.550;9.932;2023-09-19T00:17:01;18.70;1.00
837;DHT22;400;53.550;9.932;2023-09-19T00:19:32;18.70;1.00
837;DHT22;400;53.550;9.932;2023-09-19T00:21:59;18.70;1.00
837;DHT22;400;53.550;9.932;2023-09-19T00:24:26;18.60;1.00
837;DHT22;400;53.550;9.932;2023-09-19T00:26:54;18.60;1.00
837;DHT22;400;53.550;9.932;2023-09-19T00:29:21;18.60;1.00
837;DHT22;400;53.550;9.932;2023-09-19T00:31:49;18.60;1.00
837;DHT22;400;53.550;9.932;2023-09-19T00:34:16;18.70;1.00
837;DHT22;400;53.550;9.932;2023-09-19T00:36:44;18.70;1.00
837;DHT22;400;53.550;9.932;2023-09-19T00:39:11;18.70;1.00
837;DHT22;400;53.550;9.932;2023-09-19T00:41:38;18.80;1.00
837;DHT22;400;53.550;9.932;2023-09-19T00:44:06;18.60;1.00
837;DHT22;400;53.550;9.932;2023-09-19T00:46:35;18.60;1.00
837;DHT22;400;53.550;9.932;2023-09-19T00:49:02;18.60;1.00
837;DHT22;400;53.550;9.932;2023-09-19T00:51:30;18.60;1.00
837;DHT22;400;53.550;9.932;2023-09-19T00:53:58;18.60;1.00
837;DHT22;400;53.550;9.932;2023-09-19T00:56:26;18.60;1.00
837;DHT22;400;53.550;9.932;2023-09-19T00:58:56;18.70;1.00
837;DHT22;400;53.550;9.932;2023-09-19T01:01:23;18.50;1.00
837;DHT22;400;53.550;9.932;2023-09-19T01:03:51;18.50;1.00
837;DHT22;400;53.550;9.932;2023-09-19T01:06:19;18.50;1.00
837;DHT22;400;53.550;9.932;2023-09-19T01:08:46;18.50;1.00
837;DHT22;400;53.550;9.932;2023-09-19T01:11:18;18.50;1.00
837;DHT22;400;53.550;9.932;2023-09-19T01:14:00;18.50;1.00
837;DHT22;400;53.550;9.932;2023-09-19T01:16:35;18.50;1.00
837;DHT22;400;53.550;9.932;2023-09-19T01:19:20;18.50;1.00
837;DHT22;400;53.550;9.932;2023-09-19T01:21:55;18.50;1.00
837;DHT22;400;53.550;9.932;2023-09-19T01:25:05;18.50;1.00
837;DHT22;400;53.550;9.932;2023-09-19T01:28:03;18.50;1.00
837;DHT22;400;53.550;9.932;2023-09-19T01:30:40;18.50;1.00
837;DHT22;400;53.550;9.932;2023-09-19T01:33:10;18.50;1.00
837;DHT22;400;53.550;9.932;2023-09-19T01:35:37;18.50;1.00
837;DHT22;400;53.550;9.932;2023-09-19T01:38:07;18.30;1.00
837;DHT22;400;53.550;9.932;2023-09-19T01:40:41;18.20;1.00
837;DHT22;400;53.550;9.932;2023-09-19T01:43:17;18.20;1.00
837;DHT22;400;53.550;9.932;2023-09-19T01:46:01;18.30;1.00
837;DHT22;400;53.550;9.932;2023-09-19T01:48:38;18.20;1.00
837;DHT22;400;53.550;9.932;2023-09-19T01:51:07;18.20;1.00
837;DHT22;400;53.550;9.932;2023-09-19T01:53:49;18.20;1.00
837;DHT22;400;53.550;9.932;2023-09-19T01:56:23;18.00;1.00
837;DHT22;400;53.550;9.932;2023-09-19T01:58:56;18.00;1.00
837;DHT22;400;53.550;9.932;2023-09-19T02:01:28;18.00;1.00
837;DHT22;400;53.550;9.932;2023-09-19T02:03:55;17.90;1.00
837;DHT22;400;53.550;9.932;2023-09-19T02:06:22;18.00;1.00
837;DHT22;400;53.550;9.932;2023-09-19T02:08:50;18.00;1.00
837;DHT22;400;53.550;9.932;2023-09-19T02:11:21;18.00;1.00
837;DHT22;400;53.550;9.932;2023-09-19T02:13:49;17.90;1.00
837;DHT22;400;53.550;9.932;2023-09-19T02:16:20;18.00;1.00
837;DHT22;400;53.550;9.932;2023-09-19T02:18:48;18.00;1.00
837;DHT22;400;53.550;9.932;2023-09-19T02:21:19;18.00;1.00
837;DHT22;400;53.550;9.932;2023-09-19T02:23:47;18.00;1.00
837;DHT22;400;53.550;9.932;2023-09-19T02:26:14;18.00;1.00
837;DHT22;400;53.550;9.932;2023-09-19T02:28:42;17.90;1.00
837;DHT22;400;53.550;9.932;2023-09-19T02:31:08;17.90;1.00
837;DHT22;400;53.550;9.932;2023-09-19T02:33:36;17.80;1.00
837;DHT22;400;53.550;9.932;2023-09-19T02:36:05;17.80;1.00
837;DHT22;400;53.550;9.932;2023-09-19T02:38:33;17.90;1.00
837;DHT22;400;53.550;9.932;2023-09-19T02:41:00;17.90;1.00
837;DHT22;400;53.550;9.932;2023-09-19T02:43:30;17.90;1.00
837;DHT22;400;53.550;9.932;2023-09-19T02:45:57;17.90;1.00
837;DHT22;400;53.550;9.932;2023-09-19T02:48:24;17.80;1.00
837;DHT22;400;53.550;9.932;2023-09-19T02:50:51;17.80;1.00
837;DHT22;400;53.550;9.932;2023-09-19T02:53:22;17.80;1.00
837;DHT22;400;53.550;9.932;2023-09-19T02:55:49;17.80;1.00
837;DHT22;400;53.550;9.932;2023-09-19T02:58:22;17.80;1.00
837;DHT22;400;53.550;9.932;2023-09-19T03:00:52;17.70;1.00
837;DHT22;400;53.550;9.932;2023-09-19T03:03:20;17.70;1.00
837;DHT22;400;53.550;9.932;2023-09-19T03:05:49;17.70;1.00
837;DHT22;400;53.550;9.932;2023-09-19T03:08:19;17.80;1.00
837;DHT22;400;53.550;9.932;2023-09-19T03:10:50;17.80;1.00
837;DHT22;400;53.550;9.932;2023-09-19T03:13:18;17.70;1.00
837;DHT22;400;53.550;9.932;2023-09-19T03:15:46;17.70;1.00
837;DHT22;400;53.550;9.932;2023-09-19T03:18:15;17.60;1.00
837;DHT22;400;53.550;9.932;2023-09-19T03:20:51;17.70;1.00
837;DHT22;400;53.550;9.932;2023-09-19T03:23:22;17.70;1.00
837;DHT22;400;53.550;9.932;2023-09-19T03:25:50;17.70;1.00
837;DHT22;400;53.550;9.932;2023-09-19T03:28:17;17.70;1.00
837;DHT22;400;53.550;9.932;2023-09-19T03:30:46;17.60;1.00
837;DHT22;400;53.550;9.932;2023-09-19T03:33:13;17.60;1.00
837;DHT22;400;53.550;9.932;2023-09-19T03:35:40;17.60;1.00
837;DHT22;400;53.550;9.932;2023-09-19T03:38:07;17.50;1.00
837;DHT22;400;53.550;9.932;2023-09-19T03:40:35;17.50;1.00
837;DHT22;400;53.550;9.932;2023-09-19T03:43:04;17.50;1.00
837;DHT22;400;53.550;9.932;2023-09-19T03:45:34;17.50;1.00
837;DHT22;400;53.550;9.932;2023-09-19T03:48:08;17.50;1.00
837;DHT22;400;53.550;9.932;2023-09-19T03:50:35;17.50;1.00
837;DHT22;400;53.550;9.932;2023-09-19T03:53:11;17.40;1.00
837;DHT22;400;53.550;9.932;2023-09-19T03:55:37;17.30;1.00
837;DHT22;400;53.550;9.932;2023-09-19T03:58:08;17.30;1.00
837;DHT22;400;53.550;9.932;2023-09-19T04:00:35;17.40;1.00
837;DHT22;400;53.550;9.932;2023-09-19T04:03:02;17.40;1.00
837;DHT22;400;53.550;9.932;2023-09-19T04:05:32;17.40;1.00
837;DHT22;400;53.550;9.932;2023-09-19T04:08:01;17.30;1.00
837;DHT22;400;53.550;9.932;2023-09-19T04:10:36;17.30;1.00
837;DHT22;400;53.550;9.932;2023-09-19T04:13:09;17.10;1.00
837;DHT22;400;53.550;9.932;2023-09-19T04:15:41;17.10;1.00
837;DHT22;400;53.550;9.932;2023-09-19T04:18:12;16.90;1.00
837;DHT22;400;53.550;9.932;2023-09-19T04:20:39;16.80;1.00
837;DHT22;400;53.550;9.932;2023-09-19T04:23:06;16.70;1.00
837;DHT22;400;53.550;9.932;2023-09-19T04:25:33;16.60;1.00
837;DHT22;400;53.550;9.932;2023-09-19T04:28:00;16.70;1.00
837;DHT22;400;53.550;9.932;2023-09-19T04:30:31;16.70;1.00
837;DHT22;400;53.550;9.932;2023-09-19T04:32:58;16.70;1.00
837;DHT22;400;53.550;9.932;2023-09-19T04:35:28;16.70;1.00
837;DHT22;400;53.550;9.932;2023-09-19T04:38:09;16.70;1.00
837;DHT22;400;53.550;9.932;2023-09-19T04:40:38;16.70;1.00
837;DHT22;400;53.550;9.932;2023-09-19T04:43:09;16.80;1.00
837;DHT22;400;53.550;9.932;2023-09-19T04:45:39;16.70;1.00
837;DHT22;400;53.550;9.932;2023-09-19T04:48:06;16.70;1.00
837;DHT22;400;53.550;9.932;2023-09-19T04:50:34;16.80;1.00
837;DHT22;400;53.550;9.932;2023-09-19T04:53:02;16.70;1.00
837;DHT22;400;53.550;9.932;2023-09-19T04:55:32;16.70;1.00
837;DHT22;400;53.550;9.932;2023-09-19T04:58:00;16.70;1.00
837;DHT22;400;53.550;9.932;2023-09-19T05:00:28;16.60;1.00
837;DHT22;400;53.550;9.932;2023-09-19T05:02:58;16.50;1.00
837;DHT22;400;53.550;9.932;2023-09-19T05:05:25;16.50;1.00
837;DHT22;400;53.550;9.932;2023-09-19T05:07:52;16.60;1.00
837;DHT22;400;53.550;9.932;2023-09-19T05:10:22;16.60;1.00
837;DHT22;400;53.550;9.932;2023-09-19T05:12:55;16.40;1.00
837;DHT22;400;53.550;9.932;2023-09-19T05:15:25;16.40;1.00
837;DHT22;400;53.550;9.932;2023-09-19T05:17:52;16.40;1.00
837;DHT22;400;53.550;9.932;2023-09-19T05:20:22;16.40;1.00
837;DHT22;400;53.550;9.932;2023-09-19T05:22:59;16.40;1.00
837;DHT22;400;53.550;9.932;2023-09-19T05:25:28;16.40;1.00
837;DHT22;400;53.550;9.932;2023-09-19T05:27:56;16.50;1.00
837;DHT22;400;53.550;9.932;2023-09-19T05:30:24;16.50;1.00
837;DHT22;400;53.550;9.932;2023-09-19T05:32:53;16.60;1.00
837;DHT22;400;53.550;9.932;2023-09-19T05:35:22;16.60;1.00
837;DHT22;400;53.550;9.932;2023-09-19T05:37:51;16.60;1.00
837;DHT22;400;53.550;9.932;2023-09-19T05:40:21;16.70;1.00
837;DHT22;400;53.550;9.932;2023-09-19T05:42:49;16.70;1.00
837;DHT22;400;53.550;9.932;2023-09-19T05:45:17;16.70;1.00
837;DHT22;400;53.550;9.932;2023-09-19T05:47:47;16.70;1.00
837;DHT22;400;53.550;9.932;2023-09-19T05:50:15;16.70;1.00
837;DHT22;400;53.550;9.932;2023-09-19T05:52:51;16.70;1.00
837;DHT22;400;53.550;9.932;2023-09-19T05:55:19;16.70;1.00
837;DHT22;400;53.550;9.932;2023-09-19T05:57:49;16.70;1.00
837;DHT22;400;53.550;9.932;2023-09-19T06:00:20;16.70;1.00
837;DHT22;400;53.550;9.932;2023-09-19T06:02:56;16.80;1.00
837;DHT22;400;53.550;9.932;2023-09-19T06:05:24;16.80;1.00
837;DHT22;400;53.550;9.932;2023-09-19T06:07:55;16.80;1.00
837;DHT22;400;53.550;9.932;2023-09-19T06:10:32;16.80;1.00
837;DHT22;400;53.550;9.932;2023-09-19T06:13:02;16.90;1.00
837;DHT22;400;53.550;9.932;2023-09-19T06:15:30;17.00;1.00
837;DHT22;400;53.550;9.932;2023-09-19T06:18:03;17.00;1.00
837;DHT22;400;53.550;9.932;2023-09-19T06:20:38;17.00;1.00
837;DHT22;400;53.550;9.932;2023-09-19T06:23:12;17.00;1.00
837;DHT22;400;53.550;9.932;2023-09-19T06:25:39;17.10;1.00
837;DHT22;400;53.550;9.932;2023-09-19T06:28:06;17.20;1.00
837;DHT22;400;53.550;9.932;2023-09-19T06:30:35;17.00;1.00
837;DHT22;400;53.550;9.932;2023-09-19T06:33:06;17.10;1.00
837;DHT22;400;53.550;9.932;2023-09-19T06:35:37;17.00;1.00
837;DHT22;400;53.550;9.932;2023-09-19T06:38:08;16.90;1.00
837;DHT22;400;53.550;9.932;2023-09-19T06:40:40;17.00;1.00
837;DHT22;400;53.550;9.932;2023-09-19T06:43:09;16.80;1.00
837;DHT22;400;53.550;9.932;2023-09-19T06:45:44;16.80;1.00
837;DHT22;400;53.550;9.932;2023-09-19T06:48:13;16.80;1.00
837;DHT22;400;53.550;9.932;2023-09-19T06:50:41;16.70;1.00
837;DHT22;400;53.550;9.932;2023-09-19T06:53:13;16.90;1.00
837;DHT22;400;53.550;9.932;2023-09-19T06:55:47;17.00;1.00
837;DHT22;400;53.550;9.932;2023-09-19T06:58:14;17.00;1.00
837;DHT22;400;53.550;9.932;2023-09-19T07:00:45;17.10;1.00
837;DHT22;400;53.550;9.932;2023-09-19T07:03:16;17.10;1.00
837;DHT22;400;53.550;9.932;2023-09-19T07:05:44;17.00;1.00
837;DHT22;400;53.550;9.932;2023-09-19T07:08:14;17.00;1.00
837;DHT22;400;53.550;9.932;2023-09-19T07:10:50;17.00;1.00
837;DHT22;400;53.550;9.932;2023-09-19T07:13:20;17.10;1.00
837;DHT22;400;53.550;9.932;2023-09-19T07:15:48;17.00;1.00
837;DHT22;400;53.550;9.932;2023-09-19T07:18:16;17.00;1.00
837;DHT22;400;53.550;9.932;2023-09-19T07:20:44;17.00;1.00
837;DHT22;400;53.550;9.932;2023-09-19T07:23:18;17.10;1.00
837;DHT22;400;53.550;9.932;2023-09-19T07:25:49;17.00;1.00
837;DHT22;400;53.550;9.932;2023-09-19T07:28:17;17.00;1.00
837;DHT22;400;53.550;9.932;2023-09-19T07:30:45;17.00;1.00
837;DHT22;400;53.550;9.932;2023-09-19T07:33:14;17.10;1.00
837;DHT22;400;53.550;9.932;2023-09-19T07:35:45;17.20;1.00
837;DHT22;400;53.550;9.932;2023-09-19T07:38:14;17.30;1.00
837;DHT22;400;53.550;9.932;2023-09-19T07:40:41;17.20;1.00
837;DHT22;400;53.550;9.932;2023-09-19T07:43:13;17.20;1.00
837;DHT22;400;53.550;9.932;2023-09-19T07:45:41;17.30;1.00
837;DHT22;400;53.550;9.932;2023-09-19T07:48:08;17.20;1.00
837;DHT22;400;53.550;9.932;2023-09-19T07:50:40;17.20;1.00
837;DHT22;400;53.550;9.932;2023-09-19T07:53:10;17.30;1.00
837;DHT22;400;53.550;9.932;2023-09-19T07:55:40;17.30;1.00
837;DHT22;400;53.550;9.932;2023-09-19T07:58:12;17.30;1.00
837;DHT22;400;53.550;9.932;2023-09-19T08:00:41;17.40;1.00
837;DHT22;400;53.550;9.932;2023-09-19T08:03:08;17.30;1.00
837;DHT22;400;53.550;9.932;2023-09-19T08:05:40;17.20;1.00
837;DHT22;400;53.550;9.932;2023-09-19T08:08:09;17.00;1.00
837;DHT22;400;53.550;9.932;2023-09-19T08:10:36;17.00;1.00
837;DHT22;400;53.550;9.932;2023-09-19T08:13:05;16.80;1.00
837;DHT22;400;53.550;9.932;2023-09-19T08:15:43;16.70;1.00
837;DHT22;400;53.550;9.932;2023-09-19T08:18:13;16.90;1.00
837;DHT22;400;53.550;9.932;2023-09-19T08:20:41;17.00;1.00
837;DHT22;400;53.550;9.932;2023-09-19T08:23:11;17.00;1.00
837;DHT22;400;53.550;9.932;2023-09-19T08:25:39;17.10;1.00
837;DHT22;400;53.550;9.932;2023-09-19T08:28:06;17.20;1.00
837;DHT22;400;53.550;9.932;2023-09-19T08:30:39;17.10;1.00
837;DHT22;400;53.550;9.932;2023-09-19T08:33:07;17.10;1.00
837;DHT22;400;53.550;9.932;2023-09-19T08:35:36;17.10;1.00
837;DHT22;400;53.550;9.932;2023-09-19T08:38:04;17.20;1.00
837;DHT22;400;53.550;9.932;2023-09-19T08:40:31;17.20;1.00
837;DHT22;400;53.550;9.932;2023-09-19T08:42:59;17.30;1.00
837;DHT22;400;53.550;9.932;2023-09-19T08:45:27;17.30;1.00
837;DHT22;400;53.550;9.932;2023-09-19T08:48:05;17.40;1.00
837;DHT22;400;53.550;9.932;2023-09-19T08:50:42;17.50;1.00
837;DHT22;400;53.550;9.932;2023-09-19T08:53:11;17.50;1.00
837;DHT22;400;53.550;9.932;2023-09-19T08:55:44;17.50;1.00
837;DHT22;400;53.550;9.932;2023-09-19T08:58:16;17.50;1.00
837;DHT22;400;53.550;9.932;2023-09-19T09:00:47;17.50;1.00
837;DHT22;400;53.550;9.932;2023-09-19T09:03:16;17.60;1.00
837;DHT22;400;53.550;9.932;2023-09-19T09:05:46;17.50;1.00
837;DHT22;400;53.550;9.932;2023-09-19T09:08:15;17.40;1.00
837;DHT22;400;53.550;9.932;2023-09-19T09:10:44;17.50;1.00
837;DHT22;400;53.550;9.932;2023-09-19T09:13:12;17.50;1.00
837;DHT22;400;53.550;9.932;2023-09-19T09:15:41;17.60;1.00
837;DHT22;400;53.550;9.932;2023-09-19T09:18:09;17.70;1.00
837;DHT22;400;53.550;9.932;2023-09-19T09:20:39;17.60;1.00
837;DHT22;400;53.550;9.932;2023-09-19T09:23:10;17.60;1.00
837;DHT22;400;53.550;9.932;2023-09-19T09:25:49;17.70;1.00
837;DHT22;400;53.550;9.932;2023-09-19T09:28:21;17.70;1.00
837;DHT22;400;53.550;9.932;2023-09-19T09:30:49;17.90;1.00
837;DHT22;400;53.550;9.932;2023-09-19T09:33:22;17.90;1.00
837;DHT22;400;53.550;9.932;2023-09-19T09:35:53;18.00;1.00
837;DHT22;400;53.550;9.932;2023-09-19T09:38:23;18.10;1.00
837;DHT22;400;53.550;9.932;2023-09-19T09:40:55;18.20;1.00
837;DHT22;400;53.550;9.932;2023-09-19T09:43:33;18.20;1.00
837;DHT22;400;53.550;9.932;2023-09-19T09:46:13;18.20;99.90
837;DHT22;400;53.550;9.932;2023-09-19T09:49:01;18.20;99.90
837;DHT22;400;53.550;9.932;2023-09-19T09:52:03;18.30;99.90
837;DHT22;400;53.550;9.932;2023-09-19T09:54:34;18.30;99.90
837;DHT22;400;53.550;9.932;2023-09-19T09:57:05;18.40;99.90
837;DHT22;400;53.550;9.932;2023-09-19T09:59:49;18.40;99.90
837;DHT22;400;53.550;9.932;2023-09-19T10:02:25;18.40;99.90
837;DHT22;400;53.550;9.932;2023-09-19T10:04:56;18.50;99.90
837;DHT22;400;53.550;9.932;2023-09-19T10:07:39;18.60;99.90
837;DHT22;400;53.550;9.932;2023-09-19T10:10:10;18.70;99.90
837;DHT22;400;53.550;9.932;2023-09-19T10:12:45;18.70;99.90
837;DHT22;400;53.550;9.932;2023-09-19T10:15:15;18.70;99.90
837;DHT22;400;53.550;9.932;2023-09-19T10:17:46;18.80;99.90
837;DHT22;400;53.550;9.932;2023-09-19T10:20:15;18.80;99.90
837;DHT22;400;53.550;9.932;2023-09-19T10:23:06;18.80;99.90
837;DHT22;400;53.550;9.932;2023-09-19T10:25:40;18.90;99.90
837;DHT22;400;53.550;9.932;2023-09-19T10:28:09;18.90;99.90
837;DHT22;400;53.550;9.932;2023-09-19T10:30:38;19.00;99.90
837;DHT22;400;53.550;9.932;2023-09-19T10:33:10;19.00;99.90
837;DHT22;400;53.550;9.932;2023-09-19T10:35:39;18.90;99.90
837;DHT22;400;53.550;9.932;2023-09-19T10:38:11;18.90;99.90
837;DHT22;400;53.550;9.932;2023-09-19T10:40:40;18.80;99.90
837;DHT22;400;53.550;9.932;2023-09-19T10:43:12;18.90;99.90
837;DHT22;400;53.550;9.932;2023-09-19T10:45:45;19.00;99.90
837;DHT22;400;53.550;9.932;2023-09-19T10:48:20;19.00;99.90
837;DHT22;400;53.550;9.932;2023-09-19T10:51:08;19.00;99.90
837;DHT22;400;53.550;9.932;2023-09-19T10:53:48;19.00;99.90
837;DHT22;400;53.550;9.932;2023-09-19T10:56:27;19.00;99.90
837;DHT22;400;53.550;9.932;2023-09-19T10:59:09;19.00;99.90
837;DHT22;400;53.550;9.932;2023-09-19T11:01:45;19.00;99.90
837;DHT22;400;53.550;9.932;2023-09-19T11:04:24;19.00;99.90
837;DHT22;400;53.550;9.932;2023-09-19T11:07:04;19.10;99.90
837;DHT22;400;53.550;9.932;2023-09-19T11:09:49;19.10;99.90
837;DHT22;400;53.550;9.932;2023-09-19T11:12:49;19.10;99.90
837;DHT22;400;53.550;9.932;2023-09-19T11:18:51;19.20;99.90
837;DHT22;400;53.550;9.932;2023-09-19T11:24:33;19.20;99.90
837;DHT22;400;53.550;9.932;2023-09-19T11:27:15;19.30;99.90
837;DHT22;400;53.550;9.932;2023-09-19T11:29:46;19.30;99.90
837;DHT22;400;53.550;9.932;2023-09-19T11:32:14;19.40;99.90
837;DHT22;400;53.550;9.932;2023-09-19T11:34:46;19.40;99.90
837;DHT22;400;53.550;9.932;2023-09-19T11:40:42;19.50;99.90
837;DHT22;400;53.550;9.932;2023-09-19T11:43:35;19.50;99.90
837;DHT22;400;53.550;9.932;2023-09-19T11:46:07;19.60;99.90
837;DHT22;400;53.550;9.932;2023-09-19T11:48:37;19.50;99.90
837;DHT22;400;53.550;9.932;2023-09-19T11:51:17;19.50;99.90
837;DHT22;400;53.550;9.932;2023-09-19T11:53:50;19.60;99.90
837;DHT22;400;53.550;9.932;2023-09-19T11:56:20;19.60;99.90
837;DHT22;400;53.550;9.932;2023-09-19T11:58:52;19.60;99.90
837;DHT22;400;53.550;9.932;2023-09-19T12:01:23;19.60;99.90
837;DHT22;400;53.550;9.932;2023-09-19T12:03:55;19.70;99.90
837;DHT22;400;53.550;9.932;2023-09-19T12:06:26;19.70;99.90
837;DHT22;400;53.550;9.932;2023-09-19T12:08:57;19.80;99.90
837;DHT22;400;53.550;9.932;2023-09-19T12:11:31;19.80;99.90
837;DHT22;400;53.550;9.932;2023-09-19T12:14:03;19.80;99.90
837;DHT22;400;53.550;9.932;2023-09-19T12:16:30;19.90;99.90
837;DHT22;400;53.550;9.932;2023-09-19T12:19:17;19.90;99.90
837;DHT22;400;53.550;9.932;2023-09-19T12:21:54;19.90;99.90
837;DHT22;400;53.550;9.932;2023-09-19T12:24:24;19.90;99.90
837;DHT22;400;53.550;9.932;2023-09-19T12:26:52;19.90;99.90
837;DHT22;400;53.550;9.932;2023-09-19T12:29:22;20.00;99.90
837;DHT22;400;53.550;9.932;2023-09-19T12:31:54;20.00;99.90
837;DHT22;400;53.550;9.932;2023-09-19T12:34:26;20.10;99.90
837;DHT22;400;53.550;9.932;2023-09-19T12:37:12;20.10;99.90
837;DHT22;400;53.550;9.932;2023-09-19T12:39:47;20.10;99.90
837;DHT22;400;53.550;9.932;2023-09-19T12:42:20;20.10;99.90
837;DHT22;400;53.550;9.932;2023-09-19T12:44:49;20.10;99.90
837;DHT22;400;53.550;9.932;2023-09-19T12:47:25;20.10;99.90
837;DHT22;400;53.550;9.932;2023-09-19T12:50:09;20.10;99.90
837;DHT22;400;53.550;9.932;2023-09-19T12:52:45;20.00;99.90
837;DHT22;400;53.550;9.932;2023-09-19T12:55:26;20.00;99.90
837;DHT22;400;53.550;9.932;2023-09-19T12:58:07;20.10;99.90
837;DHT22;400;53.550;9.932;2023-09-19T13:00:42;20.10;99.90
837;DHT22;400;53.550;9.932;2023-09-19T13:03:14;20.00;99.90
837;DHT22;400;53.550;9.932;2023-09-19T13:05:52;20.00;99.90
837;DHT22;400;53.550;9.932;2023-09-19T13:08:23;20.10;99.90
837;DHT22;400;53.550;9.932;2023-09-19T13:11:09;20.10;99.90
837;DHT22;400;53.550;9.932;2023-09-19T13:13:40;20.20;99.90
837;DHT22;400;53.550;9.932;2023-09-19T13:16:18;20.10;99.90
837;DHT22;400;53.550;9.932;2023-09-19T13:18:50;20.20;99.90
837;DHT22;400;53.550;9.932;2023-09-19T13:21:28;20.30;99.90
837;DHT22;400;53.550;9.932;2023-09-19T13:24:18;20.30;99.90
837;DHT22;400;53.550;9.932;2023-09-19T13:26:49;20.30;99.90
837;DHT22;400;53.550;9.932;2023-09-19T13:29:24;20.30;99.90
837;DHT22;400;53.550;9.932;2023-09-19T13:31:54;20.40;99.90
837;DHT22;400;53.550;9.932;2023-09-19T13:34:20;20.50;99.90
837;DHT22;400;53.550;9.932;2023-09-19T13:36:49;20.50;99.90
837;DHT22;400;53.550;9.932;2023-09-19T13:39:16;20.60;99.90
837;DHT22;400;53.550;9.932;2023-09-19T13:41:48;20.60;99.90
837;DHT22;400;53.550;9.932;2023-09-19T13:44:15;20.60;99.90
837;DHT22;400;53.550;9.932;2023-09-19T13:46:44;20.60;99.90
837;DHT22;400;53.550;9.932;2023-09-19T13:49:14;20.60;99.90
837;DHT22;400;53.550;9.932;2023-09-19T13:51:45;20.60;99.90
837;DHT22;400;53.550;9.932;2023-09-19T13:54:18;20.70;99.90
837;DHT22;400;53.550;9.932;2023-09-19T13:56:48;20.70;99.90
837;DHT22;400;53.550;9.932;2023-09-19T13:59:15;20.70;99.90
837;DHT22;400;53.550;9.932;2023-09-19T14:01:42;20.70;99.90
837;DHT22;400;53.550;9.932;2023-09-19T14:04:09;20.60;99.90
837;DHT22;400;53.550;9.932;2023-09-19T14:06:41;20.60;99.90
837;DHT22;400;53.550;9.932;2023-09-19T14:09:11;20.60;99.90
837;DHT22;400;53.550;9.932;2023-09-19T14:11:39;20.60;99.90
837;DHT22;400;53.550;9.932;2023-09-19T14:14:07;20.60;99.90
837;DHT22;400;53.550;9.932;2023-09-19T14:16:35;20.60;99.90
837;DHT22;400;53.550;9.932;2023-09-19T14:19:02;20.60;99.90
837;DHT22;400;53.550;9.932;2023-09-19T14:21:29;20.60;99.90
837;DHT22;400;53.550;9.932;2023-09-19T14:23:57;20.60;99.90
837;DHT22;400;53.550;9.932;2023-09-19T14:26:26;20.70;99.90
837;DHT22;400;53.550;9.932;2023-09-19T14:28:56;20.70;99.90
837;DHT22;400;53.550;9.932;2023-09-19T14:31:29;20.60;99.90
837;DHT22;400;53.550;9.932;2023-09-19T14:33:57;20.60;99.90
837;DHT22;400;53.550;9.932;2023-09-19T14:36:25;20.60;99.90
837;DHT22;400;53.550;9.932;2023-09-19T14:38:53;20.50;99.90
837;DHT22;400;53.550;9.932;2023-09-19T14:41:24;20.60;99.90
837;DHT22;400;53.550;9.932;2023-09-19T14:43:51;20.70;99.90
837;DHT22;400;53.550;9.932;2023-09-19T14:46:20;20.60;99.90
837;DHT22;400;53.550;9.932;2023-09-19T14:48:52;20.60;99.90
837;DHT22;400;53.550;9.932;2023-09-19T14:51:21;20.60;99.90
837;DHT22;400;53.550;9.932;2023-09-19T14:53:54;20.60;99.90
837;DHT22;400;53.550;9.932;2023-09-19T14:56:30;20.60;99.90
837;DHT22;400;53.550;9.932;2023-09-19T14:59:00;20.60;99.90
837;DHT22;400;53.550;9.932;2023-09-19T15:01:28;20.70;99.90
837;DHT22;400;53.550;9.932;2023-09-19T15:03:55;20.70;99.90
837;DHT22;400;53.550;9.932;2023-09-19T15:06:22;20.60;99.90
837;DHT22;400;53.550;9.932;2023-09-19T15:08:49;20.60;99.90
837;DHT22;400;53.550;9.932;2023-09-19T15:11:17;20.60;99.90
837;DHT22;400;53.550;9.932;2023-09-19T15:13:46;20.60;99.90
837;DHT22;400;53.550;9.932;2023-09-19T15:16:14;20.60;99.90
837;DHT22;400;53.550;9.932;2023-09-19T15:18:45;20.60;99.90
837;DHT22;400;53.550;9.932;2023-09-19T15:21:14;20.60;99.90
837;DHT22;400;53.550;9.932;2023-09-19T15:23:42;20.50;99.90
837;DHT22;400;53.550;9.932;2023-09-19T15:26:14;20.50;99.90
837;DHT22;400;53.550;9.932;2023-09-19T15:28:46;20.50;99.90
837;DHT22;400;53.550;9.932;2023-09-19T15:31:15;20.50;99.90
837;DHT22;400;53.550;9.932;2023-09-19T15:33:43;20.50;99.90
837;DHT22;400;53.550;9.932;2023-09-19T15:36:14;20.50;99.90
837;DHT22;400;53.550;9.932;2023-09-19T15:39:00;20.40;99.90
837;DHT22;400;53.550;9.932;2023-09-19T15:41:29;20.40;99.90
837;DHT22;400;53.550;9.932;2023-09-19T15:44:04;20.40;99.90
837;DHT22;400;53.550;9.932;2023-09-19T15:46:33;20.40;99.90
837;DHT22;400;53.550;9.932;2023-09-19T15:49:01;20.40;99.90
837;DHT22;400;53.550;9.932;2023-09-19T15:51:28;20.40;99.90
837;DHT22;400;53.550;9.932;2023-09-19T15:53:57;20.40;99.90
837;DHT22;400;53.550;9.932;2023-09-19T15:56:26;20.40;99.90
837;DHT22;400;53.550;9.932;2023-09-19T15:58:54;20.30;99.90
837;DHT22;400;53.550;9.932;2023-09-19T16:01:23;20.30;99.90
837;DHT22;400;53.550;9.932;2023-09-19T16:03:52;20.30;99.90
837;DHT22;400;53.550;9.932;2023-09-19T16:06:22;20.30;99.90
837;DHT22;400;53.550;9.932;2023-09-19T16:08:54;20.30;99.90
837;DHT22;400;53.550;9.932;2023-09-19T16:11:22;20.20;99.90
837;DHT22;400;53.550;9.932;2023-09-19T16:13:50;20.20;99.90
837;DHT22;400;53.550;9.932;2023-09-19T16:16:19;20.30;99.90
837;DHT22;400;53.550;9.932;2023-09-19T16:18:53;20.30;99.90
837;DHT22;400;53.550;9.932;2023-09-19T16:21:30;20.20;99.90
837;DHT22;400;53.550;9.932;2023-09-19T16:24:01;20.20;99.90
837;DHT22;400;53.550;9.932;2023-09-19T16:26:28;20.30;99.90
837;DHT22;400;53.550;9.932;2023-09-19T16:28:58;20.20;99.90
837;DHT22;400;53.550;9.932;2023-09-19T16:31:27;20.20;99.90
837;DHT22;400;53.550;9.932;2023-09-19T16:34:03;20.20;99.90
837;DHT22;400;53.550;9.932;2023-09-19T16:36:33;20.30;99.90
837;DHT22;400;53.550;9.932;2023-09-19T16:39:02;20.30;99.90
837;DHT22;400;53.550;9.932;2023-09-19T16:41:35;20.30;99.90
837;DHT22;400;53.550;9.932;2023-09-19T16:44:08;20.30;99.90
837;DHT22;400;53.550;9.932;2023-09-19T16:46:35;20.30;99.90
837;DHT22;400;53.550;9.932;2023-09-19T16:49:06;20.20;99.90
837;DHT22;400;53.550;9.932;2023-09-19T16:51:39;20.20;99.90
837;DHT22;400;53.550;9.932;2023-09-19T16:54:12;20.20;99.90
837;DHT22;400;53.550;9.932;2023-09-19T16:56:40;20.10;99.90
837;DHT22;400;53.550;9.932;2023-09-19T16:59:08;20.20;99.90
837;DHT22;400;53.550;9.932;2023-09-19T17:01:38;20.10;99.90
837;DHT22;400;53.550;9.932;2023-09-19T17:04:08;20.10;99.90
837;DHT22;400;53.550;9.932;2023-09-19T17:06:37;20.10;99.90
837;DHT22;400;53.550;9.932;2023-09-19T17:09:08;20.10;99.90
837;DHT22;400;53.550;9.932;2023-09-19T17:11:37;20.10;99.90
837;DHT22;400;53.550;9.932;2023-09-19T17:14:04;20.10;99.90
837;DHT22;400;53.550;9.932;2023-09-19T17:16:35;20.10;99.90
837;DHT22;400;53.550;9.932;2023-09-19T17:19:03;20.10;99.90
837;DHT22;400;53.550;9.932;2023-09-19T17:21:33;20.10;99.90